Time;durP1;ratioP1;P1;durP2;ratioP2;P2;SDS_P1;SDS_P2;PMS_P1;PMS_P2;Temp;Humidity;BMP_temperature;BMP_pressure;BME280_temperature;BME280_humidity;BME280_pressure;Samples;Min_cycle;Max_cycle;Signal;HPM_P1;HPM_P2
2022/06/18 00:00:58;;;;;;;10.18;3.70;;;24.20;98.40;;;;;;5055546;28;20029;-79
2022/06/18 00:03:25;;;;;;;6.57;4.10;;;24.20;98.40;;;;;;5055360;28;20074;-76
2022/06/18 00:05:54;;;;;;;5.13;3.47;;;24.20;98.40;;;;;;5055855;28;20017;-77
2022/06/18 00:08:25;;;;;;;11.55;4.20;;;24.10;98.40;;;;;;5055985;28;20499;-77
2022/06/18 00:13:39;;;;;;;6.43;3.53;;;24.20;98.20;;;;;;5055610;28;20033;-76
2022/06/18 00:13:42;;;;;;;9.55;3.65;;;24.20;98.20;;;;;;5055623;28;20048;-77
2022/06/18 00:16:19;;;;;;;5.20;3.85;;;24.20;98.30;;;;;;5055478;28;20379;-83
2022/06/18 00:18:45;;;;;;;5.63;3.28;;;24.20;98.20;;;;;;5054033;28;20028;-77
2022/06/18 00:21:18;;;;;;;10.10;4.22;;;24.10;98.20;;;;;;5055629;28;20079;-77
2022/06/18 00:23:45;;;;;;;4.90;3.33;;;24.10;98.30;;;;;;5055535;28;20013;-77
2022/06/18 00:26:11;;;;;;;6.47;3.95;;;24.10;98.00;;;;;;5055363;28;20025;-78
2022/06/18 00:28:37;;;;;;;7.72;3.60;;;24.10;98.00;;;;;;5055186;28;20029;-77
2022/06/18 00:31:03;;;;;;;10.10;3.80;;;24.10;98.10;;;;;;5055149;28;20036;-77
2022/06/18 00:33:29;;;;;;;11.63;3.90;;;24.10;98.10;;;;;;5055312;28;20542;-77
2022/06/18 00:36:00;;;;;;;5.85;3.85;;;24.10;98.00;;;;;;5054803;28;20024;-77
2022/06/18 00:38:31;;;;;;;5.50;3.45;;;24.00;98.10;;;;;;5054822;28;20072;-77
2022/06/18 00:40:58;;;;;;;10.27;4.70;;;24.00;98.20;;;;;;5054943;28;20021;-77
2022/06/18 00:43:39;;;;;;;7.35;3.72;;;24.00;98.10;;;;;;5054889;28;20033;-77
2022/06/18 00:46:15;;;;;;;5.57;4.00;;;24.00;98.30;;;;;;5054818;28;20492;-77
2022/06/18 00:48:49;;;;;;;7.05;3.55;;;23.90;98.20;;;;;;5054794;28;20079;-77
2022/06/18 00:51:37;;;;;;;8.85;3.60;;;23.90;98.40;;;;;;5054066;28;20036;-77
2022/06/18 00:54:30;;;;;;;9.23;4.22;;;23.90;98.40;;;;;;5054710;28;20024;-77
2022/06/18 00:57:28;;;;;;;10.07;4.00;;;23.80;98.50;;;;;;5051655;28;20045;-77
2022/06/18 01:00:05;;;;;;;9.07;3.80;;;23.80;98.60;;;;;;5054420;28;20029;-77
2022/06/18 01:02:35;;;;;;;4.97;4.10;;;23.80;98.40;;;;;;5054333;28;20025;-77
2022/06/18 01:05:00;;;;;;;6.47;4.25;;;23.80;98.70;;;;;;5054537;28;20059;-77
2022/06/18 01:07:28;;;;;;;10.75;4.22;;;23.80;98.70;;;;;;5054580;28;20033;-77
2022/06/18 01:09:54;;;;;;;11.15;4.35;;;23.80;99.00;;;;;;5053219;28;20028;-77
2022/06/18 01:12:21;;;;;;;5.45;4.15;;;23.80;99.00;;;;;;5053224;28;20040;-78
2022/06/18 01:14:51;;;;;;;10.07;4.10;;;23.80;99.20;;;;;;5054542;28;20021;-77
2022/06/18 01:17:18;;;;;;;6.80;3.55;;;23.70;99.30;;;;;;5054591;28;20029;-77
2022/06/18 01:19:47;;;;;;;11.48;4.13;;;23.70;99.30;;;;;;5054411;28;20021;-77
2022/06/18 01:22:36;;;;;;;6.43;3.90;;;23.70;99.60;;;;;;5054288;28;20091;-76
2022/06/18 01:25:05;;;;;;;9.98;4.75;;;23.60;99.50;;;;;;5053202;28;20029;-77
2022/06/18 01:27:31;;;;;;;14.25;5.05;;;23.60;99.20;;;;;;5052842;28;20361;-77
2022/06/18 01:29:56;;;;;;;21.70;4.95;;;23.60;99.20;;;;;;5054255;28;20032;-87
2022/06/18 01:32:23;;;;;;;6.93;4.13;;;23.60;99.20;;;;;;5054108;28;20029;-77
2022/06/18 01:34:50;;;;;;;9.13;3.97;;;23.60;99.30;;;;;;5054609;28;20024;-77
2022/06/18 01:37:16;;;;;;;9.45;4.18;;;23.60;99.40;;;;;;5053834;28;20650;-79
2022/06/18 01:39:45;;;;;;;7.30;3.92;;;23.60;99.50;;;;;;5053841;28;20017;-77
2022/06/18 01:42:26;;;;;;;13.57;4.47;;;23.60;99.60;;;;;;5054122;28;20024;-80
2022/06/18 01:45:24;;;;;;;8.75;4.70;;;23.60;99.60;;;;;;5052758;28;20017;-77
2022/06/18 01:48:02;;;;;;;5.97;3.95;;;23.60;99.60;;;;;;5041738;28;20045;-77
2022/06/18 01:50:39;;;;;;;9.57;4.32;;;23.60;99.80;;;;;;5053606;28;20501;-77
2022/06/18 01:53:22;;;;;;;9.43;4.10;;;23.50;99.70;;;;;;5053045;28;20118;-77
2022/06/18 01:55:56;;;;;;;10.75;4.18;;;23.50;99.80;;;;;;5053179;28;20458;-77
2022/06/18 01:58:28;;;;;;;7.85;4.20;;;23.50;99.70;;;;;;5053506;28;20029;-77
2022/06/18 02:00:58;;;;;;;6.18;4.40;;;23.50;99.80;;;;;;5053670;28;20071;-77
2022/06/18 02:03:24;;;;;;;10.02;5.25;;;23.50;99.90;;;;;;5052564;28;20474;-77
2022/06/18 02:05:49;;;;;;;6.43;4.28;;;23.50;99.90;;;;;;5053257;28;20168;-77
2022/06/18 02:08:18;;;;;;;6.78;4.63;;;23.50;99.90;;;;;;5053398;28;20068;-78
2022/06/18 02:10:52;;;;;;;8.20;4.72;;;23.50;99.90;;;;;;5053268;28;20025;-77
2022/06/18 02:13:21;;;;;;;8.52;4.70;;;23.50;99.90;;;;;;5052726;28;20028;-77
2022/06/18 02:15:47;;;;;;;11.68;4.65;;;23.50;99.90;;;;;;5052977;28;20025;-78
2022/06/18 02:18:15;;;;;;;11.23;4.13;;;23.50;99.90;;;;;;5053317;28;20475;-77
2022/06/18 02:20:55;;;;;;;5.30;3.90;;;23.50;99.80;;;;;;5053301;28;20094;-81
2022/06/18 02:23:23;;;;;;;11.23;3.72;;;23.50;99.60;;;;;;5052997;28;20399;-77
2022/06/18 02:25:49;;;;;;;8.60;4.38;;;23.60;99.70;;;;;;5053099;28;20117;-78
2022/06/18 02:28:28;;;;;;;6.20;3.88;;;23.60;99.70;;;;;;5052667;28;20120;-77
2022/06/18 02:30:58;;;;;;;7.60;4.00;;;23.60;99.60;;;;;;5053111;28;20021;-79
2022/06/18 02:33:36;;;;;;;9.40;4.47;;;23.60;99.50;;;;;;5052949;28;20025;-77
2022/06/18 02:36:23;;;;;;;11.25;4.28;;;23.60;99.70;;;;;;5052913;28;20293;-78
2022/06/18 02:38:57;;;;;;;13.68;4.15;;;23.60;99.60;;;;;;5052770;28;20025;-77
2022/06/18 02:41:24;;;;;;;9.60;4.20;;;23.60;99.50;;;;;;5052618;28;20033;-76
2022/06/18 02:43:50;;;;;;;8.30;3.67;;;23.60;99.50;;;;;;5052616;28;20307;-78
2022/06/18 02:46:17;;;;;;;6.38;3.72;;;23.50;99.60;;;;;;5052948;28;20430;-78
2022/06/18 02:48:43;;;;;;;6.65;4.30;;;23.50;99.60;;;;;;5052733;28;20454;-80
2022/06/18 02:51:12;;;;;;;8.68;4.75;;;23.50;99.60;;;;;;5052807;28;20108;-77
2022/06/18 02:53:37;;;;;;;10.25;4.40;;;23.50;99.60;;;;;;5052683;28;20069;-78
2022/06/18 02:56:06;;;;;;;10.52;4.20;;;23.50;99.60;;;;;;5052539;28;20126;-78
2022/06/18 02:58:36;;;;;;;9.52;4.15;;;23.50;99.60;;;;;;5052420;28;20025;-78
2022/06/18 03:01:05;;;;;;;9.82;3.92;;;23.50;99.70;;;;;;5052498;28;20489;-76
2022/06/18 03:03:38;;;;;;;7.20;4.00;;;23.50;99.80;;;;;;5052468;28;20033;-77
2022/06/18 03:06:05;;;;;;;8.68;4.88;;;23.40;99.70;;;;;;5052361;28;20021;-78
2022/06/18 03:08:32;;;;;;;8.48;3.92;;;23.50;99.70;;;;;;5052185;28;20036;-76
2022/06/18 03:13:44;;;;;;;9.30;4.30;;;23.50;99.70;;;;;;5052377;28;20489;-76
2022/06/18 03:16:12;;;;;;;6.68;3.65;;;23.40;99.60;;;;;;5056431;28;20475;-79
2022/06/18 03:18:39;;;;;;;9.20;3.72;;;23.50;99.60;;;;;;5056575;28;20029;-77
2022/06/18 03:21:41;;;;;;;6.88;4.10;;;23.50;99.40;;;;;;5056511;28;20021;-77
2022/06/18 03:24:07;;;;;;;4.28;3.58;;;23.50;99.30;;;;;;5056388;28;20024;-78
2022/06/18 03:26:36;;;;;;;9.77;3.50;;;23.60;99.30;;;;;;5056052;28;20040;-76
2022/06/18 03:29:05;;;;;;;10.27;4.43;;;23.60;99.00;;;;;;5056098;28;20040;-77
2022/06/18 03:31:31;;;;;;;6.45;3.42;;;23.60;99.00;;;;;;5055811;28;20390;-77
2022/06/18 03:33:57;;;;;;;11.73;4.03;;;23.50;98.90;;;;;;5055626;28;20453;-77
2022/06/18 03:36:22;;;;;;;8.00;4.30;;;23.60;98.80;;;;;;5056040;28;20096;-77
2022/06/18 03:38:50;;;;;;;10.95;4.22;;;23.60;98.70;;;;;;5056109;28;20047;-76
2022/06/18 03:41:16;;;;;;;7.68;4.10;;;23.60;98.70;;;;;;5056408;28;20053;-77
2022/06/18 03:43:42;;;;;;;9.23;3.72;;;23.60;98.50;;;;;;5055648;28;20017;-78
2022/06/18 03:46:11;;;;;;;8.55;3.80;;;23.60;98.50;;;;;;5054959;28;20143;-78
2022/06/18 03:48:44;;;;;;;9.43;3.40;;;23.60;98.30;;;;;;5055841;28;20033;-77
2022/06/18 03:51:11;;;;;;;8.13;3.53;;;23.70;98.30;;;;;;5055709;28;20454;-77
2022/06/18 03:53:37;;;;;;;4.32;3.45;;;23.70;98.20;;;;;;5054757;28;20395;-77
2022/06/18 03:56:04;;;;;;;5.68;3.65;;;23.70;98.20;;;;;;5055622;28;20083;-87
2022/06/18 03:58:29;;;;;;;5.70;3.20;;;23.80;98.10;;;;;;5054803;28;20052;-77
2022/06/18 04:00:56;;;;;;;6.00;2.85;;;23.90;97.90;;;;;;5054904;28;20125;-77
2022/06/18 04:03:21;;;;;;;5.55;3.35;;;24.00;97.70;;;;;;5055338;28;20036;-88
2022/06/18 04:05:47;;;;;;;7.85;3.20;;;24.00;97.60;;;;;;5055153;28;20029;-77
2022/06/18 04:08:17;;;;;;;6.97;3.42;;;24.10;97.50;;;;;;5053000;28;20063;-77
2022/06/18 04:10:43;;;;;;;10.20;3.67;;;24.20;97.50;;;;;;5055500;28;20475;-80
2022/06/18 04:13:09;;;;;;;7.15;3.70;;;24.30;97.30;;;;;;5055254;28;20487;-79
2022/06/18 04:15:35;;;;;;;5.05;3.22;;;24.40;97.20;;;;;;5054416;28;20060;-76
2022/06/18 04:18:02;;;;;;;6.35;3.03;;;24.40;97.20;;;;;;5054557;28;20104;-77
2022/06/18 04:20:31;;;;;;;5.70;2.92;;;24.50;96.90;;;;;;5054500;28;20040;-77
2022/06/18 04:22:57;;;;;;;7.85;3.10;;;24.60;96.90;;;;;;5053626;28;20025;-86
2022/06/18 04:25:23;;;;;;;9.10;3.50;;;24.70;96.80;;;;;;5054997;28;20100;-76
2022/06/18 04:27:49;;;;;;;9.57;2.90;;;24.80;96.60;;;;;;5054618;28;20029;-77
2022/06/18 04:30:17;;;;;;;9.40;3.85;;;24.90;96.40;;;;;;5055347;28;20061;-76
2022/06/18 04:32:43;;;;;;;5.43;2.85;;;24.90;96.20;;;;;;5055200;28;20036;-76
2022/06/18 04:35:12;;;;;;;4.88;2.70;;;25.00;96.10;;;;;;5055268;28;20368;-85
2022/06/18 04:37:38;;;;;;;5.72;2.92;;;25.00;95.90;;;;;;5055116;28;20108;-86
2022/06/18 04:40:05;;;;;;;9.63;2.70;;;25.10;95.80;;;;;;5054884;28;20496;-84
2022/06/18 04:42:31;;;;;;;10.30;2.63;;;25.30;95.40;;;;;;5054609;28;20486;-83
2022/06/18 04:44:57;;;;;;;6.65;2.90;;;25.50;95.00;;;;;;5054876;28;20032;-84
2022/06/18 04:47:22;;;;;;;10.82;2.72;;;25.70;94.80;;;;;;5054721;28;20029;-76
2022/06/18 04:49:48;;;;;;;5.97;2.50;;;25.80;94.60;;;;;;5054668;28;20051;-82
2022/06/18 04:52:14;;;;;;;5.97;2.50;;;26.00;94.30;;;;;;5055172;28;20032;-78
2022/06/18 04:54:40;;;;;;;9.25;2.67;;;26.30;93.70;;;;;;5053625;28;20017;-77
2022/06/18 04:57:06;;;;;;;9.02;3.15;;;26.20;93.70;;;;;;5054783;28;20051;-77
2022/06/18 04:59:31;;;;;;;11.45;2.40;;;26.30;93.50;;;;;;5054947;28;20025;-77
2022/06/18 05:02:03;;;;;;;9.25;2.33;;;26.40;93.30;;;;;;5054726;28;20436;-77
2022/06/18 05:04:29;;;;;;;4.78;2.78;;;26.60;93.20;;;;;;5054739;28;20067;-81
2022/06/18 05:06:54;;;;;;;7.75;2.55;;;27.00;92.90;;;;;;5054735;28;20057;-77
2022/06/18 05:09:20;;;;;;;5.82;2.05;;;27.40;92.40;;;;;;5054525;28;20028;-85
2022/06/18 05:11:47;;;;;;;6.13;2.55;;;27.60;91.70;;;;;;5054939;28;20036;-85
2022/06/18 05:14:14;;;;;;;7.50;2.30;;;27.90;91.30;;;;;;5054506;28;20045;-82
2022/06/18 05:16:40;;;;;;;5.47;2.45;;;27.70;91.30;;;;;;5054549;28;20017;-83
2022/06/18 05:19:10;;;;;;;5.90;2.15;;;27.80;91.00;;;;;;5053463;28;20025;-77
2022/06/18 05:21:35;;;;;;;4.55;2.55;;;28.00;90.80;;;;;;5054372;28;20104;-86
2022/06/18 05:24:01;;;;;;;10.52;2.33;;;27.80;90.80;;;;;;5053942;28;20128;-87
2022/06/18 05:26:27;;;;;;;5.88;2.08;;;27.90;90.50;;;;;;5053796;28;20017;-78
2022/06/18 05:28:52;;;;;;;5.63;2.30;;;28.20;90.30;;;;;;5054031;28;20033;-77
2022/06/18 05:31:18;;;;;;;8.98;2.35;;;28.30;90.20;;;;;;5053758;28;20025;-83
2022/06/18 05:33:44;;;;;;;9.93;2.22;;;28.80;89.60;;;;;;5053703;28;20057;-76
2022/06/18 05:36:19;;;;;;;7.00;2.30;;;29.30;88.00;;;;;;5053630;28;20344;-78
2022/06/18 05:38:45;;;;;;;6.13;1.85;;;29.50;86.50;;;;;;5053749;28;20028;-80
2022/06/18 05:41:11;;;;;;;5.63;2.05;;;29.30;86.50;;;;;;5053869;28;20471;-77
2022/06/18 05:43:37;;;;;;;6.43;2.28;;;29.50;86.30;;;;;;5053954;28;20078;-78
2022/06/18 05:46:02;;;;;;;8.63;1.60;;;29.80;84.70;;;;;;5053926;28;20025;-86
2022/06/18 05:48:28;;;;;;;1.88;1.50;;;30.10;83.10;;;;;;5053524;28;20033;-77
2022/06/18 05:50:54;;;;;;;3.08;2.05;;;30.00;83.70;;;;;;5053313;28;20021;-79
2022/06/18 05:53:19;;;;;;;6.10;1.83;;;30.50;82.80;;;;;;5053377;28;20021;-79
2022/06/18 05:55:46;;;;;;;6.43;1.70;;;31.10;81.90;;;;;;5053412;28;20072;-78
2022/06/18 05:58:11;;;;;;;3.53;1.60;;;31.60;81.90;;;;;;5053678;28;20025;-79
2022/06/18 06:00:37;;;;;;;5.18;1.60;;;32.10;80.10;;;;;;5053630;28;20025;-87
2022/06/18 06:03:03;;;;;;;3.55;1.80;;;32.40;80.40;;;;;;5053522;28;20438;-77
2022/06/18 06:05:29;;;;;;;2.67;1.60;;;32.50;78.50;;;;;;5053447;28;20108;-77
2022/06/18 06:07:55;;;;;;;6.38;1.85;;;32.10;79.30;;;;;;5052206;28;20450;-80
2022/06/18 06:13:10;;;;;;;8.85;1.80;;;32.60;79.70;;;;;;5053342;28;20111;-78
2022/06/18 06:15:37;;;;;;;6.00;1.42;;;32.90;76.60;;;;;;5053228;28;20016;-86
2022/06/18 06:18:03;;;;;;;7.68;1.88;;;32.60;77.90;;;;;;5053121;28;20021;-82
2022/06/18 06:20:32;;;;;;;10.48;2.15;;;32.10;78.50;;;;;;5052882;28;20032;-87
2022/06/18 06:22:59;;;;;;;7.30;2.03;;;32.60;77.40;;;;;;5052136;28;20474;-77
2022/06/18 06:25:24;;;;;;;3.15;1.10;;;33.00;75.20;;;;;;5053188;28;20051;-77
2022/06/18 06:27:50;;;;;;;3.42;1.35;;;33.20;73.70;;;;;;5052914;28;20029;-78
2022/06/18 06:30:17;;;;;;;3.47;1.65;;;32.10;75.70;;;;;;5053135;28;20024;-78
2022/06/18 06:32:44;;;;;;;7.20;1.50;;;32.20;75.30;;;;;;5052806;28;20555;-81
2022/06/18 06:35:10;;;;;;;4.43;1.58;;;32.60;75.50;;;;;;5052558;28;20028;-82
2022/06/18 06:37:36;;;;;;;5.15;1.42;;;33.10;75.00;;;;;;5052975;28;20788;-78
2022/06/18 06:40:02;;;;;;;6.70;1.92;;;33.30;72.90;;;;;;5051671;28;20033;-77
2022/06/18 06:42:28;;;;;;;2.55;1.25;;;33.10;72.90;;;;;;5052649;28;20136;-84
2022/06/18 06:44:54;;;;;;;6.13;1.67;;;32.50;73.50;;;;;;5053140;28;20032;-81
2022/06/18 06:47:20;;;;;;;5.40;1.60;;;32.20;74.00;;;;;;5052995;28;20037;-80
2022/06/18 06:49:46;;;;;;;5.72;1.80;;;32.20;75.00;;;;;;5051545;28;20021;-79
2022/06/18 06:52:12;;;;;;;2.35;1.50;;;32.00;75.30;;;;;;5052435;28;20047;-79
2022/06/18 06:54:38;;;;;;;2.20;1.50;;;31.70;75.30;;;;;;5052320;28;20021;-85
2022/06/18 06:57:22;;;;;;;8.38;1.77;;;31.60;75.20;;;;;;5052371;28;20052;-85
2022/06/18 06:59:48;;;;;;;3.33;1.80;;;31.30;75.30;;;;;;5052233;28;20036;-79
2022/06/18 07:02:20;;;;;;;6.22;1.65;;;31.20;77.10;;;;;;5052279;28;20462;-86
2022/06/18 07:04:46;;;;;;;5.13;1.85;;;31.30;76.40;;;;;;5052559;28;20542;-77
2022/06/18 07:07:12;;;;;;;12.93;3.47;;;31.30;76.00;;;;;;5051370;28;20049;-77
2022/06/18 07:09:39;;;;;;;7.88;1.77;;;31.10;75.90;;;;;;5051325;28;20020;-83
2022/06/18 07:12:06;;;;;;;8.82;2.05;;;30.50;76.40;;;;;;5052482;28;20028;-83
2022/06/18 07:14:31;;;;;;;3.95;1.88;;;30.30;78.10;;;;;;5052194;28;20067;-85
2022/06/18 07:16:57;;;;;;;4.03;1.83;;;30.20;77.20;;;;;;5051292;28;20514;-87
2022/06/18 07:19:23;;;;;;;10.60;2.20;;;30.00;77.80;;;;;;5051327;28;20083;-79
2022/06/18 07:21:52;;;;;;;10.10;1.92;;;29.90;78.10;;;;;;5052475;28;20021;-87
2022/06/18 07:24:19;;;;;;;3.72;1.80;;;30.20;78.10;;;;;;5052294;28;20029;-78
2022/06/18 07:26:45;;;;;;;8.20;2.00;;;30.40;78.20;;;;;;5052216;28;20059;-87
2022/06/18 07:29:11;;;;;;;7.93;1.90;;;30.50;77.50;;;;;;5052773;28;20025;-84
2022/06/18 07:31:36;;;;;;;6.93;2.20;;;30.30;77.90;;;;;;5052403;28;20033;-84
2022/06/18 07:34:05;;;;;;;4.95;2.30;;;30.50;77.70;;;;;;5051828;28;20021;-79
2022/06/18 07:36:32;;;;;;;5.32;2.20;;;30.30;78.20;;;;;;5050923;28;20627;-88
2022/06/18 07:39:01;;;;;;;3.30;2.00;;;30.50;78.40;;;;;;5050725;28;20163;-78
2022/06/18 07:41:36;;;;;;;9.38;2.55;;;30.60;77.20;;;;;;5051123;28;20556;-77
2022/06/18 07:44:02;;;;;;;6.38;2.28;;;30.80;77.40;;;;;;5050996;28;20048;-79
2022/06/18 07:46:29;;;;;;;4.70;1.90;;;31.20;75.60;;;;;;5052110;28;20552;-78
2022/06/18 07:48:55;;;;;;;3.63;2.15;;;31.40;75.50;;;;;;5050624;28;20119;-86
2022/06/18 07:51:22;;;;;;;6.68;1.90;;;31.50;76.30;;;;;;5051995;28;20211;-80
2022/06/18 07:53:48;;;;;;;3.25;1.92;;;31.60;76.60;;;;;;5050961;28;20029;-78
2022/06/18 07:56:15;;;;;;;5.10;1.92;;;31.60;75.90;;;;;;5041320;28;20051;-81
2022/06/18 07:58:42;;;;;;;4.72;2.17;;;31.60;75.80;;;;;;5043903;28;20027;-76
2022/06/18 08:01:08;;;;;;;6.47;2.22;;;31.50;75.40;;;;;;5044399;28;20041;-76
2022/06/18 08:03:35;;;;;;;2.97;2.08;;;31.10;76.60;;;;;;5046797;28;20439;-78
2022/06/18 08:06:02;;;;;;;4.72;1.90;;;31.30;76.00;;;;;;5047989;28;20437;-77
2022/06/18 08:08:28;;;;;;;6.85;2.05;;;31.40;76.60;;;;;;5046858;28;20030;-77
2022/06/18 08:10:54;;;;;;;5.10;1.80;;;31.60;74.90;;;;;;5043840;28;20039;-78
2022/06/18 08:13:21;;;;;;;6.72;1.77;;;31.80;75.70;;;;;;5037124;28;20037;-78
2022/06/18 08:15:47;;;;;;;2.85;1.95;;;31.90;79.70;;;;;;5035447;28;20026;-78
2022/06/18 08:18:13;;;;;;;7.00;2.10;;;32.00;78.50;;;;;;5045396;28;20033;-84
2022/06/18 08:20:41;;;;;;;8.23;2.15;;;31.90;78.50;;;;;;5045346;28;20029;-86
2022/06/18 08:23:08;;;;;;;5.38;2.25;;;31.90;81.30;;;;;;5034528;28;20029;-83
2022/06/18 08:25:37;;;;;;;4.65;2.10;;;31.70;81.80;;;;;;5054106;28;20031;-83
2022/06/18 08:28:05;;;;;;;4.75;2.33;;;31.50;81.80;;;;;;5054056;28;20039;-85
2022/06/18 08:30:32;;;;;;;6.03;2.63;;;31.50;82.40;;;;;;5039237;28;20092;-87
2022/06/18 08:32:57;;;;;;;8.15;2.40;;;31.50;82.00;;;;;;5038175;28;20026;-83
2022/06/18 08:35:24;;;;;;;3.88;2.20;;;31.60;82.00;;;;;;5041667;28;20043;-84
2022/06/18 08:37:50;;;;;;;7.53;2.00;;;31.60;82.20;;;;;;5051095;28;20024;-85
2022/06/18 08:40:45;;;;;;;4.88;2.47;;;31.60;80.90;;;;;;5054582;28;20017;-82
2022/06/18 08:43:52;;;;;;;4.07;2.00;;;31.50;80.30;;;;;;5053696;28;20025;-85
2022/06/18 08:46:32;;;;;;;9.05;2.38;;;31.70;79.30;;;;;;5051647;28;20040;-86
2022/06/18 08:49:28;;;;;;;4.22;2.17;;;31.90;79.10;;;;;;5021076;28;20111;-86
2022/06/18 08:52:08;;;;;;;12.63;1.90;;;31.90;77.90;;;;;;5006100;28;20107;-86
2022/06/18 08:54:40;;;;;;;7.18;2.30;;;31.90;76.40;;;;;;5035272;28;20083;-86
2022/06/18 08:57:18;;;;;;;6.57;2.15;;;31.70;77.50;;;;;;5034150;28;20095;-86
2022/06/18 09:00:11;;;;;;;9.75;2.95;;;31.50;78.40;;;;;;5034157;28;20057;-85
2022/06/18 09:02:52;;;;;;;9.70;2.20;;;31.50;78.40;;;;;;5033392;28;20480;-87
2022/06/18 09:05:42;;;;;;;3.10;2.20;;;31.60;78.20;;;;;;5033388;28;20025;-86
2022/06/18 09:08:33;;;;;;;7.00;1.85;;;31.70;78.20;;;;;;5034016;28;20040;-86
2022/06/18 09:11:20;;;;;;;5.75;1.92;;;31.80;77.50;;;;;;5034059;28;20022;-87
2022/06/18 09:14:07;;;;;;;7.95;2.30;;;31.70;78.40;;;;;;5033498;28;20060;-86
2022/06/18 09:16:51;;;;;;;5.53;2.03;;;31.50;77.00;;;;;;5033434;28;20026;-87
2022/06/18 09:19:21;;;;;;;4.20;1.92;;;31.20;77.40;;;;;;5033774;28;20068;-86
2022/06/18 09:21:56;;;;;;;5.72;2.47;;;31.20;77.50;;;;;;5034830;28;20029;-85
2022/06/18 09:24:40;;;;;;;3.83;2.08;;;31.40;77.50;;;;;;5033850;28;20116;-87
2022/06/18 09:27:11;;;;;;;5.22;2.50;;;31.80;77.40;;;;;;5033223;28;20041;-87
2022/06/18 09:29:48;;;;;;;11.10;2.55;;;31.90;76.10;;;;;;5033191;28;20107;-87
2022/06/18 09:32:24;;;;;;;4.95;2.22;;;31.90;76.90;;;;;;5046965;28;20043;-87
2022/06/18 09:35:04;;;;;;;6.07;2.55;;;31.80;78.40;;;;;;5052932;28;20387;-86
2022/06/18 09:38:18;;;;;;;8.10;2.75;;;31.70;80.70;;;;;;5052473;28;20021;-86
2022/06/18 09:40:56;;;;;;;13.07;2.28;;;31.70;82.50;;;;;;5053014;28;20045;-86
2022/06/18 09:43:42;;;;;;;4.22;2.15;;;31.60;82.30;;;;;;5052826;28;20059;-87
2022/06/18 09:46:35;;;;;;;7.95;2.60;;;31.70;81.80;;;;;;5052688;28;20028;-87
2022/06/18 09:49:00;;;;;;;6.13;2.42;;;31.80;83.20;;;;;;5053031;28;20045;-87
2022/06/18 09:52:00;;;;;;;9.90;2.50;;;31.80;82.80;;;;;;5052779;28;20036;-86
2022/06/18 09:54:31;;;;;;;9.43;2.33;;;31.90;82.20;;;;;;5052898;28;20459;-87
2022/06/18 09:57:00;;;;;;;2.90;2.20;;;31.80;81.40;;;;;;5052432;28;20052;-87
2022/06/18 09:59:33;;;;;;;8.55;2.88;;;31.60;81.10;;;;;;5052744;28;20090;-87
2022/06/18 10:02:00;;;;;;;10.82;2.35;;;31.50;82.00;;;;;;5052649;28;20375;-86
2022/06/18 10:07:17;;;;;;;7.38;2.55;;;31.40;83.90;;;;;;5054054;28;20052;-87
2022/06/18 10:10:09;;;;;;;8.30;2.83;;;31.50;83.40;;;;;;5052153;28;20017;-87
2022/06/18 10:12:48;;;;;;;5.32;2.10;;;31.30;82.20;;;;;;5051650;28;20036;-86
2022/06/18 10:15:16;;;;;;;12.43;2.58;;;31.40;82.20;;;;;;5052205;28;20035;-87
2022/06/18 10:17:45;;;;;;;2.75;2.30;;;31.40;80.90;;;;;;5052156;28;20029;-87
2022/06/18 10:20:16;;;;;;;6.15;2.00;;;31.50;81.90;;;;;;5051770;28;20056;-86
2022/06/18 10:23:14;;;;;;;4.43;2.80;;;31.40;81.00;;;;;;5053587;28;20021;-87
2022/06/18 10:25:51;;;;;;;8.07;2.30;;;31.20;82.30;;;;;;5052644;28;20025;-86
2022/06/18 10:28:36;;;;;;;4.90;2.67;;;31.10;85.40;;;;;;5051880;28;20068;-87
2022/06/18 10:31:09;;;;;;;6.18;2.42;;;31.10;85.40;;;;;;5052276;28;20017;-86
2022/06/18 10:33:50;;;;;;;6.65;2.38;;;31.00;83.60;;;;;;5050435;28;20029;-86
2022/06/18 10:36:20;;;;;;;8.53;2.20;;;30.90;80.30;;;;;;5052016;28;20024;-87
2022/06/18 10:39:05;;;;;;;5.45;2.45;;;30.90;80.60;;;;;;5050637;28;20842;-86
2022/06/18 10:41:46;;;;;;;4.25;2.42;;;30.90;82.10;;;;;;5050459;28;20044;-86
2022/06/18 10:44:34;;;;;;;11.20;2.65;;;30.80;81.60;;;;;;5052336;28;20027;-87
2022/06/18 10:47:08;;;;;;;4.45;2.45;;;30.80;80.70;;;;;;5050875;28;20094;-87
2022/06/18 10:49:34;;;;;;;5.90;2.28;;;30.70;81.70;;;;;;5049072;28;20039;-85
2022/06/18 10:52:01;;;;;;;12.75;2.45;;;30.70;82.10;;;;;;5040237;28;20071;-88
2022/06/18 10:54:30;;;;;;;6.57;2.22;;;30.70;83.10;;;;;;5041655;28;20036;-86
2022/06/18 10:56:57;;;;;;;9.95;2.30;;;30.80;82.60;;;;;;5050252;28;20082;-87
2022/06/18 10:59:36;;;;;;;3.40;2.08;;;30.70;82.30;;;;;;5044868;28;20431;-85
2022/06/18 11:02:14;;;;;;;5.50;2.40;;;30.60;83.10;;;;;;5040327;28;20052;-86
2022/06/18 11:04:41;;;;;;;4.07;2.10;;;30.60;83.50;;;;;;5035395;28;20026;-86
2022/06/18 11:07:12;;;;;;;5.15;2.50;;;30.60;84.20;;;;;;5040273;28;20053;-86
2022/06/18 11:09:54;;;;;;;9.00;2.90;;;30.60;85.00;;;;;;5039092;28;20055;-87
2022/06/18 11:12:27;;;;;;;11.13;2.47;;;30.70;82.20;;;;;;5039469;28;20355;-86
2022/06/18 11:14:53;;;;;;;3.65;2.38;;;30.70;82.10;;;;;;5038045;28;20032;-86
2022/06/18 11:17:43;;;;;;;5.32;2.55;;;30.70;83.40;;;;;;5045764;28;20021;-86
2022/06/18 11:20:14;;;;;;;5.15;2.50;;;30.60;84.90;;;;;;5050269;28;20025;-86
2022/06/18 11:22:41;;;;;;;7.18;2.25;;;30.40;85.30;;;;;;5049942;28;20029;-87
2022/06/18 11:25:43;;;;;;;4.50;2.10;;;30.40;85.90;;;;;;5050688;28;20033;-87
2022/06/18 11:28:36;;;;;;;11.25;2.83;;;30.40;84.30;;;;;;5050480;28;20112;-85
2022/06/18 11:31:04;;;;;;;6.15;2.40;;;30.30;85.60;;;;;;5051707;28;20044;-86
2022/06/18 11:33:32;;;;;;;6.28;2.72;;;30.10;86.90;;;;;;5050451;28;20057;-85
2022/06/18 11:36:11;;;;;;;6.00;2.20;;;30.10;87.60;;;;;;5052172;28;20438;-86
2022/06/18 11:38:38;;;;;;;5.82;2.95;;;30.20;90.40;;;;;;5053335;28;20029;-85
2022/06/18 11:41:32;;;;;;;7.70;2.70;;;30.20;90.90;;;;;;5055765;28;20471;-86
2022/06/18 11:44:08;;;;;;;8.00;2.40;;;30.30;91.00;;;;;;5054314;28;20030;-86
2022/06/18 11:46:55;;;;;;;9.55;2.40;;;30.40;90.20;;;;;;5052588;28;20029;-86
2022/06/18 11:49:33;;;;;;;7.95;2.35;;;30.30;90.30;;;;;;5053181;28;20024;-86
2022/06/18 11:52:26;;;;;;;4.90;2.67;;;30.30;90.00;;;;;;5040684;28;20125;-84
2022/06/18 11:54:59;;;;;;;12.20;2.72;;;30.30;88.70;;;;;;5046276;28;20038;-86
2022/06/18 11:57:53;;;;;;;6.35;2.55;;;30.50;87.50;;;;;;5035330;28;20065;-86
2022/06/18 12:00:29;;;;;;;6.43;2.30;;;30.60;85.80;;;;;;5052775;28;20029;-87
2022/06/18 12:03:19;;;;;;;6.53;2.58;;;30.60;85.30;;;;;;5036731;28;20025;-85
2022/06/18 12:05:57;;;;;;;9.13;2.60;;;30.70;83.90;;;;;;5035063;28;20519;-87
2022/06/18 12:08:24;;;;;;;5.82;2.60;;;30.70;83.40;;;;;;5033655;28;20095;-87
2022/06/18 12:11:04;;;;;;;4.65;2.30;;;30.70;82.90;;;;;;5033628;28;20049;-86
2022/06/18 12:13:48;;;;;;;4.17;2.10;;;30.70;83.10;;;;;;5036731;28;20021;-86
2022/06/18 12:16:24;;;;;;;6.10;2.88;;;30.80;83.50;;;;;;5042000;28;20275;-87
2022/06/18 12:19:02;;;;;;;5.65;2.90;;;31.00;84.60;;;;;;5054089;28;20020;-86
2022/06/18 12:21:47;;;;;;;3.83;2.78;;;31.20;83.00;;;;;;5054426;28;20029;-88
2022/06/18 12:24:28;;;;;;;6.72;2.40;;;31.20;82.00;;;;;;5035266;28;20387;-87
2022/06/18 12:27:23;;;;;;;7.00;2.45;;;31.20;84.10;;;;;;5040454;28;20037;-87
2022/06/18 12:30:00;;;;;;;3.80;3.10;;;31.30;85.10;;;;;;5054737;28;20017;-88
2022/06/18 12:32:49;;;;;;;7.95;2.15;;;31.20;84.80;;;;;;5039327;28;20049;-87
2022/06/18 12:35:25;;;;;;;5.25;2.42;;;31.10;84.40;;;;;;5034944;28;20026;-88
2022/06/18 12:38:17;;;;;;;6.10;2.95;;;31.10;83.30;;;;;;5040605;28;20480;-88
2022/06/18 12:41:05;;;;;;;14.35;3.50;;;31.20;84.90;;;;;;5033790;28;20683;-88
2022/06/18 12:43:39;;;;;;;5.95;2.50;;;31.30;83.00;;;;;;5033281;28;20095;-88
2022/06/18 12:46:12;;;;;;;3.08;2.03;;;31.40;81.50;;;;;;5033256;28;20029;-87
2022/06/18 12:48:59;;;;;;;9.75;2.20;;;31.40;79.30;;;;;;5033951;28;20128;-88
2022/06/18 12:51:43;;;;;;;10.13;2.38;;;31.30;79.30;;;;;;5038418;28;20104;-87
2022/06/18 12:54:37;;;;;;;7.30;2.70;;;31.30;80.20;;;;;;5035424;28;20049;-86
2022/06/18 12:57:17;;;;;;;10.85;2.50;;;31.30;80.40;;;;;;5034276;28;20042;-87
2022/06/18 13:00:04;;;;;;;9.55;2.13;;;31.20;81.00;;;;;;5033359;28;20439;-86
2022/06/18 13:02:54;;;;;;;10.52;2.30;;;31.20;81.70;;;;;;5033236;28;20025;-88
2022/06/18 13:05:46;;;;;;;6.85;2.35;;;31.10;82.50;;;;;;5033489;28;20124;-88
2022/06/18 13:08:30;;;;;;;7.35;3.20;;;31.00;83.50;;;;;;5034328;28;20064;-88
2022/06/18 13:11:12;;;;;;;6.50;2.65;;;30.90;84.10;;;;;;5034099;28;20025;-86
2022/06/18 13:14:05;;;;;;;5.18;2.50;;;30.80;84.60;;;;;;5048608;28;20479;-87
2022/06/18 13:16:45;;;;;;;5.70;2.50;;;30.80;84.80;;;;;;5032853;28;20392;-88
2022/06/18 13:19:17;;;;;;;4.60;2.60;;;30.70;85.30;;;;;;5044153;28;20029;-88
2022/06/18 13:21:44;;;;;;;14.57;2.83;;;30.70;86.40;;;;;;5054250;28;20045;-87